sensor_id;sensor_type;location;lat;lon;timestamp;temperature;humidity
35668;DHT22;22158;59.280;17.806;2022-10-17T00:00:50;9.00;99.90
35668;DHT22;22158;59.280;17.806;2022-10-17T00:03:16;9.00;99.90
35668;DHT22;22158;59.280;17.806;2022-10-17T00:05:46;8.90;99.90
35668;DHT22;22158;59.280;17.806;2022-10-17T00:08:14;9.00;99.90
35668;DHT22;22158;59.280;17.806;2022-10-17T00:10:40;9.00;99.90
35668;DHT22;22158;59.280;17.806;2022-10-17T00:13:06;9.00;99.90
35668;DHT22;22158;59.280;17.806;2022-10-17T00:15:33;9.10;99.90
35668;DHT22;22158;59.280;17.806;2022-10-17T00:17:59;9.20;99.90
35668;DHT22;22158;59.280;17.806;2022-10-17T00:20:24;9.10;99.90
35668;DHT22;22158;59.280;17.806;2022-10-17T00:22:50;9.20;99.90
35668;DHT22;22158;59.280;17.806;2022-10-17T00:25:17;9.20;99.90
35668;DHT22;22158;59.280;17.806;2022-10-17T00:27:43;9.30;99.90
35668;DHT22;22158;59.280;17.806;2022-10-17T00:30:11;9.30;99.90
35668;DHT22;22158;59.280;17.806;2022-10-17T00:32:37;9.30;99.90
35668;DHT22;22158;59.280;17.806;2022-10-17T00:35:04;9.40;99.90
35668;DHT22;22158;59.280;17.806;2022-10-17T00:37:30;9.40;99.90
35668;DHT22;22158;59.280;17.806;2022-10-17T00:39:56;9.40;99.90
35668;DHT22;22158;59.280;17.806;2022-10-17T00:42:22;9.40;99.90
35668;DHT22;22158;59.280;17.806;2022-10-17T00:47:20;9.50;99.90
35668;DHT22;22158;59.280;17.806;2022-10-17T00:49:46;9.50;99.90
35668;DHT22;22158;59.280;17.806;2022-10-17T00:52:16;9.60;99.90
35668;DHT22;22158;59.280;17.806;2022-10-17T00:54:48;9.60;99.90
35668;DHT22;22158;59.280;17.806;2022-10-17T00:57:16;9.60;99.90
35668;DHT22;22158;59.280;17.806;2022-10-17T00:59:43;9.50;99.90
35668;DHT22;22158;59.280;17.806;2022-10-17T01:02:12;9.50;99.90
35668;DHT22;22158;59.280;17.806;2022-10-17T01:04:41;9.50;99.90
35668;DHT22;22158;59.280;17.806;2022-10-17T01:07:08;9.50;99.90
35668;DHT22;22158;59.280;17.806;2022-10-17T01:09:34;9.60;99.90
35668;DHT22;22158;59.280;17.806;2022-10-17T01:15:23;9.70;99.90
35668;DHT22;22158;59.280;17.806;2022-10-17T01:18:07;9.70;99.90
35668;DHT22;22158;59.280;17.806;2022-10-17T01:23:39;9.80;99.90
35668;DHT22;22158;59.280;17.806;2022-10-17T01:34:34;10.00;99.90
35668;DHT22;22158;59.280;17.806;2022-10-17T01:37:06;10.00;99.90
35668;DHT22;22158;59.280;17.806;2022-10-17T01:39:51;10.00;99.90
35668;DHT22;22158;59.280;17.806;2022-10-17T01:47:27;10.00;99.90
35668;DHT22;22158;59.280;17.806;2022-10-17T01:52:55;10.00;99.90
35668;DHT22;22158;59.280;17.806;2022-10-17T01:55:36;10.10;99.90
35668;DHT22;22158;59.280;17.806;2022-10-17T01:58:13;10.10;99.90
35668;DHT22;22158;59.280;17.806;2022-10-17T02:00:41;10.10;99.90
35668;DHT22;22158;59.280;17.806;2022-10-17T02:03:14;10.10;99.90
35668;DHT22;22158;59.280;17.806;2022-10-17T02:05:41;10.10;99.90
35668;DHT22;22158;59.280;17.806;2022-10-17T02:08:08;10.10;99.90
35668;DHT22;22158;59.280;17.806;2022-10-17T02:33:13;9.90;99.90
35668;DHT22;22158;59.280;17.806;2022-10-17T02:35:44;9.90;99.90
35668;DHT22;22158;59.280;17.806;2022-10-17T02:38:12;9.80;99.90
35668;DHT22;22158;59.280;17.806;2022-10-17T02:40:40;9.80;99.90
35668;DHT22;22158;59.280;17.806;2022-10-17T02:43:07;9.70;99.90
35668;DHT22;22158;59.280;17.806;2022-10-17T02:45:33;9.80;99.90
35668;DHT22;22158;59.280;17.806;2022-10-17T02:48:21;9.70;99.90
35668;DHT22;22158;59.280;17.806;2022-10-17T02:51:10;9.60;99.90
35668;DHT22;22158;59.280;17.806;2022-10-17T02:53:47;9.50;99.90
35668;DHT22;22158;59.280;17.806;2022-10-17T02:56:21;9.60;99.90
35668;DHT22;22158;59.280;17.806;2022-10-17T02:58:51;9.50;99.90
35668;DHT22;22158;59.280;17.806;2022-10-17T03:01:18;9.50;99.90
35668;DHT22;22158;59.280;17.806;2022-10-17T03:03:45;9.50;99.90
35668;DHT22;22158;59.280;17.806;2022-10-17T03:06:10;9.40;99.90
35668;DHT22;22158;59.280;17.806;2022-10-17T03:08:36;9.40;99.90
35668;DHT22;22158;59.280;17.806;2022-10-17T03:11:01;9.30;99.90
35668;DHT22;22158;59.280;17.806;2022-10-17T03:13:28;9.30;99.90
35668;DHT22;22158;59.280;17.806;2022-10-17T03:15:55;9.30;99.90
35668;DHT22;22158;59.280;17.806;2022-10-17T03:18:21;9.30;99.90
35668;DHT22;22158;59.280;17.806;2022-10-17T03:20:47;9.30;99.90
35668;DHT22;22158;59.280;17.806;2022-10-17T03:23:13;9.20;99.90
35668;DHT22;22158;59.280;17.806;2022-10-17T03:25:38;9.30;99.90
35668;DHT22;22158;59.280;17.806;2022-10-17T03:28:04;9.30;99.90
35668;DHT22;22158;59.280;17.806;2022-10-17T03:30:30;9.40;99.90
35668;DHT22;22158;59.280;17.806;2022-10-17T03:32:57;9.30;99.90
35668;DHT22;22158;59.280;17.806;2022-10-17T03:35:23;9.30;99.90
35668;DHT22;22158;59.280;17.806;2022-10-17T03:37:48;9.40;99.90
35668;DHT22;22158;59.280;17.806;2022-10-17T03:40:14;9.30;99.90
35668;DHT22;22158;59.280;17.806;2022-10-17T03:42:40;9.30;99.90
35668;DHT22;22158;59.280;17.806;2022-10-17T03:45:06;9.20;99.90
35668;DHT22;22158;59.280;17.806;2022-10-17T03:47:31;9.30;99.90
35668;DHT22;22158;59.280;17.806;2022-10-17T03:49:57;9.20;99.90
35668;DHT22;22158;59.280;17.806;2022-10-17T03:52:23;9.10;99.90
35668;DHT22;22158;59.280;17.806;2022-10-17T03:54:49;9.20;99.90
35668;DHT22;22158;59.280;17.806;2022-10-17T03:57:15;9.20;99.90
35668;DHT22;22158;59.280;17.806;2022-10-17T03:59:41;9.20;99.90
35668;DHT22;22158;59.280;17.806;2022-10-17T04:02:07;9.20;99.90
35668;DHT22;22158;59.280;17.806;2022-10-17T04:04:32;9.20;99.90
35668;DHT22;22158;59.280;17.806;2022-10-17T04:06:58;9.20;99.90
35668;DHT22;22158;59.280;17.806;2022-10-17T04:09:24;9.20;99.90
35668;DHT22;22158;59.280;17.806;2022-10-17T04:11:49;9.20;99.90
35668;DHT22;22158;59.280;17.806;2022-10-17T04:14:15;9.20;99.90
35668;DHT22;22158;59.280;17.806;2022-10-17T04:16:41;9.10;99.90
35668;DHT22;22158;59.280;17.806;2022-10-17T04:19:06;9.10;99.90
35668;DHT22;22158;59.280;17.806;2022-10-17T04:21:32;9.00;99.90
35668;DHT22;22158;59.280;17.806;2022-10-17T04:23:59;9.00;99.90
35668;DHT22;22158;59.280;17.806;2022-10-17T04:26:25;9.10;99.90
35668;DHT22;22158;59.280;17.806;2022-10-17T04:28:51;9.20;99.90
35668;DHT22;22158;59.280;17.806;2022-10-17T04:31:18;9.10;99.90
35668;DHT22;22158;59.280;17.806;2022-10-17T04:33:46;9.10;99.90
35668;DHT22;22158;59.280;17.806;2022-10-17T04:36:15;9.10;99.90
35668;DHT22;22158;59.280;17.806;2022-10-17T04:38:41;9.00;99.90
35668;DHT22;22158;59.280;17.806;2022-10-17T04:41:10;9.00;99.90
35668;DHT22;22158;59.280;17.806;2022-10-17T04:43:37;9.00;99.90
35668;DHT22;22158;59.280;17.806;2022-10-17T04:46:08;9.00;99.90
35668;DHT22;22158;59.280;17.806;2022-10-17T04:48:34;9.00;99.90
35668;DHT22;22158;59.280;17.806;2022-10-17T04:51:03;9.00;99.90
35668;DHT22;22158;59.280;17.806;2022-10-17T04:53:33;9.00;99.90
35668;DHT22;22158;59.280;17.806;2022-10-17T04:56:00;9.00;99.90
35668;DHT22;22158;59.280;17.806;2022-10-17T04:58:28;9.00;99.90
35668;DHT22;22158;59.280;17.806;2022-10-17T05:00:54;9.00;99.90
35668;DHT22;22158;59.280;17.806;2022-10-17T05:03:20;8.90;99.90
35668;DHT22;22158;59.280;17.806;2022-10-17T05:05:46;8.90;99.90
35668;DHT22;22158;59.280;17.806;2022-10-17T05:08:11;8.90;99.90
35668;DHT22;22158;59.280;17.806;2022-10-17T05:10:43;8.90;99.90
35668;DHT22;22158;59.280;17.806;2022-10-17T05:13:09;8.90;99.90
35668;DHT22;22158;59.280;17.806;2022-10-17T05:15:36;8.80;99.90
35668;DHT22;22158;59.280;17.806;2022-10-17T05:18:03;8.80;99.90
35668;DHT22;22158;59.280;17.806;2022-10-17T05:20:29;8.80;99.90
35668;DHT22;22158;59.280;17.806;2022-10-17T05:22:54;8.80;99.90
35668;DHT22;22158;59.280;17.806;2022-10-17T05:25:20;8.70;99.90
35668;DHT22;22158;59.280;17.806;2022-10-17T05:27:46;8.80;99.90
35668;DHT22;22158;59.280;17.806;2022-10-17T05:30:12;8.70;99.90
35668;DHT22;22158;59.280;17.806;2022-10-17T05:32:37;8.70;99.90
35668;DHT22;22158;59.280;17.806;2022-10-17T05:35:03;8.70;99.90
35668;DHT22;22158;59.280;17.806;2022-10-17T05:37:30;8.70;99.90
35668;DHT22;22158;59.280;17.806;2022-10-17T05:39:56;8.70;99.90
35668;DHT22;22158;59.280;17.806;2022-10-17T05:42:22;8.80;99.90
35668;DHT22;22158;59.280;17.806;2022-10-17T05:44:47;8.70;99.90
35668;DHT22;22158;59.280;17.806;2022-10-17T05:47:13;8.70;99.90
35668;DHT22;22158;59.280;17.806;2022-10-17T05:49:39;8.70;99.90
35668;DHT22;22158;59.280;17.806;2022-10-17T05:52:05;8.70;99.90
35668;DHT22;22158;59.280;17.806;2022-10-17T05:54:31;8.60;99.90
35668;DHT22;22158;59.280;17.806;2022-10-17T05:56:56;8.70;99.90
35668;DHT22;22158;59.280;17.806;2022-10-17T05:59:24;8.70;99.90
35668;DHT22;22158;59.280;17.806;2022-10-17T06:01:50;8.70;99.90
35668;DHT22;22158;59.280;17.806;2022-10-17T06:04:15;8.80;99.90
35668;DHT22;22158;59.280;17.806;2022-10-17T06:06:41;8.80;99.90
35668;DHT22;22158;59.280;17.806;2022-10-17T06:09:07;8.70;99.90
35668;DHT22;22158;59.280;17.806;2022-10-17T06:11:33;8.70;99.90
35668;DHT22;22158;59.280;17.806;2022-10-17T06:13:59;8.70;99.90
35668;DHT22;22158;59.280;17.806;2022-10-17T06:16:25;8.80;99.90
35668;DHT22;22158;59.280;17.806;2022-10-17T06:18:51;8.70;99.90
35668;DHT22;22158;59.280;17.806;2022-10-17T06:21:20;8.80;99.90
35668;DHT22;22158;59.280;17.806;2022-10-17T06:23:46;8.80;99.90
35668;DHT22;22158;59.280;17.806;2022-10-17T06:26:12;8.80;99.90
35668;DHT22;22158;59.280;17.806;2022-10-17T06:28:37;8.80;99.90
35668;DHT22;22158;59.280;17.806;2022-10-17T06:31:08;8.80;99.90
35668;DHT22;22158;59.280;17.806;2022-10-17T06:33:34;8.90;99.90
35668;DHT22;22158;59.280;17.806;2022-10-17T06:36:00;8.90;99.90
35668;DHT22;22158;59.280;17.806;2022-10-17T06:38:26;8.90;99.90
35668;DHT22;22158;59.280;17.806;2022-10-17T06:40:51;9.00;99.90
35668;DHT22;22158;59.280;17.806;2022-10-17T06:43:19;9.00;99.90
35668;DHT22;22158;59.280;17.806;2022-10-17T06:45:45;9.00;99.90
35668;DHT22;22158;59.280;17.806;2022-10-17T06:48:12;9.00;99.90
35668;DHT22;22158;59.280;17.806;2022-10-17T06:50:37;9.10;99.90
35668;DHT22;22158;59.280;17.806;2022-10-17T06:53:03;9.10;99.90
35668;DHT22;22158;59.280;17.806;2022-10-17T06:55:30;9.10;99.90
35668;DHT22;22158;59.280;17.806;2022-10-17T06:57:56;9.10;99.90
35668;DHT22;22158;59.280;17.806;2022-10-17T07:00:22;9.10;99.90
35668;DHT22;22158;59.280;17.806;2022-10-17T07:02:48;9.10;99.90
35668;DHT22;22158;59.280;17.806;2022-10-17T07:05:14;9.20;99.90
35668;DHT22;22158;59.280;17.806;2022-10-17T07:07:40;9.30;99.90
35668;DHT22;22158;59.280;17.806;2022-10-17T07:10:05;9.30;99.90
35668;DHT22;22158;59.280;17.806;2022-10-17T07:12:34;9.30;99.90
35668;DHT22;22158;59.280;17.806;2022-10-17T07:15:00;9.30;99.90
35668;DHT22;22158;59.280;17.806;2022-10-17T07:17:25;9.40;99.90
35668;DHT22;22158;59.280;17.806;2022-10-17T07:19:51;9.40;99.90
35668;DHT22;22158;59.280;17.806;2022-10-17T07:22:17;9.40;99.90
35668;DHT22;22158;59.280;17.806;2022-10-17T07:24:43;9.50;99.90
35668;DHT22;22158;59.280;17.806;2022-10-17T07:27:08;9.50;99.90
35668;DHT22;22158;59.280;17.806;2022-10-17T07:29:34;9.60;99.90
35668;DHT22;22158;59.280;17.806;2022-10-17T07:32:00;9.60;99.90
35668;DHT22;22158;59.280;17.806;2022-10-17T07:34:28;9.60;99.90
35668;DHT22;22158;59.280;17.806;2022-10-17T07:36:55;9.70;99.90
35668;DHT22;22158;59.280;17.806;2022-10-17T07:39:21;9.70;99.90
35668;DHT22;22158;59.280;17.806;2022-10-17T07:41:48;9.80;99.90
35668;DHT22;22158;59.280;17.806;2022-10-17T07:44:15;9.80;99.90
35668;DHT22;22158;59.280;17.806;2022-10-17T07:46:40;9.90;99.90
35668;DHT22;22158;59.280;17.806;2022-10-17T07:49:06;9.90;99.90
35668;DHT22;22158;59.280;17.806;2022-10-17T07:51:32;10.00;99.90
35668;DHT22;22158;59.280;17.806;2022-10-17T07:53:58;10.00;99.90
35668;DHT22;22158;59.280;17.806;2022-10-17T07:56:23;10.10;99.90
35668;DHT22;22158;59.280;17.806;2022-10-17T07:58:50;10.10;99.90
35668;DHT22;22158;59.280;17.806;2022-10-17T08:01:16;10.20;99.90
35668;DHT22;22158;59.280;17.806;2022-10-17T08:03:46;10.20;99.90
35668;DHT22;22158;59.280;17.806;2022-10-17T08:06:13;10.20;99.90
35668;DHT22;22158;59.280;17.806;2022-10-17T08:08:39;10.30;99.90
35668;DHT22;22158;59.280;17.806;2022-10-17T08:11:08;10.30;99.90
35668;DHT22;22158;59.280;17.806;2022-10-17T08:13:34;10.30;99.90
35668;DHT22;22158;59.280;17.806;2022-10-17T08:16:02;10.30;99.90
35668;DHT22;22158;59.280;17.806;2022-10-17T08:18:28;10.30;99.90
35668;DHT22;22158;59.280;17.806;2022-10-17T08:20:57;10.40;99.90
35668;DHT22;22158;59.280;17.806;2022-10-17T08:23:23;10.50;99.90
35668;DHT22;22158;59.280;17.806;2022-10-17T08:25:49;10.50;99.90
35668;DHT22;22158;59.280;17.806;2022-10-17T08:28:14;10.50;99.90
35668;DHT22;22158;59.280;17.806;2022-10-17T08:30:40;10.60;99.90
35668;DHT22;22158;59.280;17.806;2022-10-17T08:33:05;10.60;99.90
35668;DHT22;22158;59.280;17.806;2022-10-17T08:35:31;10.70;99.90
35668;DHT22;22158;59.280;17.806;2022-10-17T08:38:00;10.70;99.90
35668;DHT22;22158;59.280;17.806;2022-10-17T08:40:28;10.70;99.90
35668;DHT22;22158;59.280;17.806;2022-10-17T08:48:07;10.90;99.90
35668;DHT22;22158;59.280;17.806;2022-10-17T08:53:14;11.20;99.90
35668;DHT22;22158;59.280;17.806;2022-10-17T08:55:45;11.30;99.90
35668;DHT22;22158;59.280;17.806;2022-10-17T08:58:22;11.20;99.90
35668;DHT22;22158;59.280;17.806;2022-10-17T09:07:05;11.40;99.90
35668;DHT22;22158;59.280;17.806;2022-10-17T09:18:06;11.60;99.90
35668;DHT22;22158;59.280;17.806;2022-10-17T09:20:39;11.70;99.90
35668;DHT22;22158;59.280;17.806;2022-10-17T09:23:12;11.70;99.90
35668;DHT22;22158;59.280;17.806;2022-10-17T09:25:42;11.80;99.90
35668;DHT22;22158;59.280;17.806;2022-10-17T09:30:39;12.00;99.90
35668;DHT22;22158;59.280;17.806;2022-10-17T09:33:27;12.00;99.90
35668;DHT22;22158;59.280;17.806;2022-10-17T09:35:56;12.10;99.90
35668;DHT22;22158;59.280;17.806;2022-10-17T09:38:39;12.20;99.90
35668;DHT22;22158;59.280;17.806;2022-10-17T09:41:12;12.30;99.90
35668;DHT22;22158;59.280;17.806;2022-10-17T09:43:40;12.30;99.90
35668;DHT22;22158;59.280;17.806;2022-10-17T09:48:45;12.40;99.90
35668;DHT22;22158;59.280;17.806;2022-10-17T09:51:13;12.40;99.90
35668;DHT22;22158;59.280;17.806;2022-10-17T09:53:43;12.30;99.90
35668;DHT22;22158;59.280;17.806;2022-10-17T09:56:15;12.30;99.90
35668;DHT22;22158;59.280;17.806;2022-10-17T09:58:56;12.30;99.90
35668;DHT22;22158;59.280;17.806;2022-10-17T10:01:25;12.40;99.90
35668;DHT22;22158;59.280;17.806;2022-10-17T10:04:15;12.50;99.90
35668;DHT22;22158;59.280;17.806;2022-10-17T10:07:04;12.40;99.90
35668;DHT22;22158;59.280;17.806;2022-10-17T10:09:32;12.50;99.90
35668;DHT22;22158;59.280;17.806;2022-10-17T10:14:44;12.70;99.90
35668;DHT22;22158;59.280;17.806;2022-10-17T10:20:00;13.00;99.90
35668;DHT22;22158;59.280;17.806;2022-10-17T10:22:26;13.10;99.90
35668;DHT22;22158;59.280;17.806;2022-10-17T10:25:16;13.20;99.90
35668;DHT22;22158;59.280;17.806;2022-10-17T10:27:45;13.20;99.90
35668;DHT22;22158;59.280;17.806;2022-10-17T10:30:26;13.30;99.90
35668;DHT22;22158;59.280;17.806;2022-10-17T10:32:52;13.50;99.90
35668;DHT22;22158;59.280;17.806;2022-10-17T10:35:24;13.40;99.90
35668;DHT22;22158;59.280;17.806;2022-10-17T10:37:55;13.50;99.90
35668;DHT22;22158;59.280;17.806;2022-10-17T10:40:47;13.50;99.90
35668;DHT22;22158;59.280;17.806;2022-10-17T10:43:37;13.40;99.90
35668;DHT22;22158;59.280;17.806;2022-10-17T10:46:19;13.50;99.90
35668;DHT22;22158;59.280;17.806;2022-10-17T10:48:54;13.50;99.90
35668;DHT22;22158;59.280;17.806;2022-10-17T10:54:02;13.60;99.90
35668;DHT22;22158;59.280;17.806;2022-10-17T10:56:33;13.60;99.90
35668;DHT22;22158;59.280;17.806;2022-10-17T11:04:36;13.90;99.90
35668;DHT22;22158;59.280;17.806;2022-10-17T11:10:14;14.10;99.80
35668;DHT22;22158;59.280;17.806;2022-10-17T11:12:40;14.00;99.50
35668;DHT22;22158;59.280;17.806;2022-10-17T11:16:33;13.90;99.90
35668;DHT22;22158;59.280;17.806;2022-10-17T11:18:27;13.80;99.80
35668;DHT22;22158;59.280;17.806;2022-10-17T11:21:09;13.60;99.50
35668;DHT22;22158;59.280;17.806;2022-10-17T11:23:47;13.60;99.90
35668;DHT22;22158;59.280;17.806;2022-10-17T11:26:26;13.70;99.90
35668;DHT22;22158;59.280;17.806;2022-10-17T11:28:57;13.90;99.90
35668;DHT22;22158;59.280;17.806;2022-10-17T11:31:33;14.00;99.90
35668;DHT22;22158;59.280;17.806;2022-10-17T11:36:33;14.30;99.90
35668;DHT22;22158;59.280;17.806;2022-10-17T11:39:04;14.30;99.10
35668;DHT22;22158;59.280;17.806;2022-10-17T11:41:42;14.20;99.70
35668;DHT22;22158;59.280;17.806;2022-10-17T11:46:46;14.20;99.90
35668;DHT22;22158;59.280;17.806;2022-10-17T11:49:20;14.20;99.90
35668;DHT22;22158;59.280;17.806;2022-10-17T11:51:53;13.90;99.90
35668;DHT22;22158;59.280;17.806;2022-10-17T11:54:27;13.80;99.90
35668;DHT22;22158;59.280;17.806;2022-10-17T12:15:56;13.70;99.90
35668;DHT22;22158;59.280;17.806;2022-10-17T12:18:24;13.70;99.90
35668;DHT22;22158;59.280;17.806;2022-10-17T12:20:59;13.70;99.90
35668;DHT22;22158;59.280;17.806;2022-10-17T12:23:31;13.70;99.90
35668;DHT22;22158;59.280;17.806;2022-10-17T12:26:00;13.60;99.90
35668;DHT22;22158;59.280;17.806;2022-10-17T12:28:27;13.60;99.90
35668;DHT22;22158;59.280;17.806;2022-10-17T12:31:38;13.60;99.90
35668;DHT22;22158;59.280;17.806;2022-10-17T12:49:42;13.30;99.90
35668;DHT22;22158;59.280;17.806;2022-10-17T12:55:05;13.10;99.90
35668;DHT22;22158;59.280;17.806;2022-10-17T13:02:37;12.90;99.90
35668;DHT22;22158;59.280;17.806;2022-10-17T13:05:13;12.90;99.90
35668;DHT22;22158;59.280;17.806;2022-10-17T13:07:41;12.90;99.90
35668;DHT22;22158;59.280;17.806;2022-10-17T13:10:19;12.80;99.90
35668;DHT22;22158;59.280;17.806;2022-10-17T13:12:46;12.80;99.90
35668;DHT22;22158;59.280;17.806;2022-10-17T13:15:16;12.80;99.90
35668;DHT22;22158;59.280;17.806;2022-10-17T13:17:42;12.80;99.90
35668;DHT22;22158;59.280;17.806;2022-10-17T13:20:19;12.70;99.90
35668;DHT22;22158;59.280;17.806;2022-10-17T13:22:45;12.70;99.90
35668;DHT22;22158;59.280;17.806;2022-10-17T13:25:17;12.70;99.90
35668;DHT22;22158;59.280;17.806;2022-10-17T13:27:43;12.60;99.90
35668;DHT22;22158;59.280;17.806;2022-10-17T13:30:32;12.60;99.90
35668;DHT22;22158;59.280;17.806;2022-10-17T13:33:01;12.50;99.90
35668;DHT22;22158;59.280;17.806;2022-10-17T13:35:35;12.40;99.90
35668;DHT22;22158;59.280;17.806;2022-10-17T13:38:04;12.40;99.90
35668;DHT22;22158;59.280;17.806;2022-10-17T13:40:39;12.30;99.90
35668;DHT22;22158;59.280;17.806;2022-10-17T13:43:14;12.20;99.90
35668;DHT22;22158;59.280;17.806;2022-10-17T13:45:48;12.10;99.90
35668;DHT22;22158;59.280;17.806;2022-10-17T13:48:26;12.10;99.90
35668;DHT22;22158;59.280;17.806;2022-10-17T13:50:57;12.10;99.90
35668;DHT22;22158;59.280;17.806;2022-10-17T13:53:31;12.10;99.90
35668;DHT22;22158;59.280;17.806;2022-10-17T13:58:25;12.10;99.90
35668;DHT22;22158;59.280;17.806;2022-10-17T14:00:54;12.20;99.90
35668;DHT22;22158;59.280;17.806;2022-10-17T14:03:21;12.20;99.90
35668;DHT22;22158;59.280;17.806;2022-10-17T14:08:38;12.10;99.90
35668;DHT22;22158;59.280;17.806;2022-10-17T14:11:33;12.00;99.90
35668;DHT22;22158;59.280;17.806;2022-10-17T14:14:00;12.00;99.90
35668;DHT22;22158;59.280;17.806;2022-10-17T14:16:37;11.90;99.90
35668;DHT22;22158;59.280;17.806;2022-10-17T14:19:04;11.80;99.90
35668;DHT22;22158;59.280;17.806;2022-10-17T14:21:31;11.80;99.90
35668;DHT22;22158;59.280;17.806;2022-10-17T14:24:26;11.70;99.90
35668;DHT22;22158;59.280;17.806;2022-10-17T14:26:56;11.80;99.90
35668;DHT22;22158;59.280;17.806;2022-10-17T14:29:28;11.70;99.90
35668;DHT22;22158;59.280;17.806;2022-10-17T14:32:00;11.70;99.90
35668;DHT22;22158;59.280;17.806;2022-10-17T14:34:45;11.60;99.90
35668;DHT22;22158;59.280;17.806;2022-10-17T14:40:04;11.60;99.90
35668;DHT22;22158;59.280;17.806;2022-10-17T14:42:30;11.50;99.90
35668;DHT22;22158;59.280;17.806;2022-10-17T14:45:03;11.50;99.90
35668;DHT22;22158;59.280;17.806;2022-10-17T14:47:29;11.40;99.90
35668;DHT22;22158;59.280;17.806;2022-10-17T14:50:25;11.40;99.90
35668;DHT22;22158;59.280;17.806;2022-10-17T14:55:37;11.30;99.90
35668;DHT22;22158;59.280;17.806;2022-10-17T14:58:24;11.20;99.90
35668;DHT22;22158;59.280;17.806;2022-10-17T15:00:50;11.20;99.90
35668;DHT22;22158;59.280;17.806;2022-10-17T15:03:15;11.20;99.90
35668;DHT22;22158;59.280;17.806;2022-10-17T15:05:44;11.20;99.90
35668;DHT22;22158;59.280;17.806;2022-10-17T15:08:14;11.30;99.90
35668;DHT22;22158;59.280;17.806;2022-10-17T15:10:41;11.30;99.90
35668;DHT22;22158;59.280;17.806;2022-10-17T15:13:09;11.30;99.90
35668;DHT22;22158;59.280;17.806;2022-10-17T15:15:35;11.20;99.90
35668;DHT22;22158;59.280;17.806;2022-10-17T15:18:01;11.20;99.90
35668;DHT22;22158;59.280;17.806;2022-10-17T15:20:27;11.20;99.90
35668;DHT22;22158;59.280;17.806;2022-10-17T15:22:56;11.10;99.90
35668;DHT22;22158;59.280;17.806;2022-10-17T15:25:22;11.10;99.90
35668;DHT22;22158;59.280;17.806;2022-10-17T15:27:48;11.10;99.90
35668;DHT22;22158;59.280;17.806;2022-10-17T15:30:35;11.10;99.90
35668;DHT22;22158;59.280;17.806;2022-10-17T15:33:00;11.00;99.90
35668;DHT22;22158;59.280;17.806;2022-10-17T15:35:27;11.00;99.90
35668;DHT22;22158;59.280;17.806;2022-10-17T15:37:53;11.00;99.90
35668;DHT22;22158;59.280;17.806;2022-10-17T15:40:22;11.00;99.90
35668;DHT22;22158;59.280;17.806;2022-10-17T15:42:48;10.90;99.90
35668;DHT22;22158;59.280;17.806;2022-10-17T15:45:15;10.90;99.90
35668;DHT22;22158;59.280;17.806;2022-10-17T15:47:43;10.90;99.90
35668;DHT22;22158;59.280;17.806;2022-10-17T15:50:14;10.90;99.90
35668;DHT22;22158;59.280;17.806;2022-10-17T15:52:41;10.90;99.90
35668;DHT22;22158;59.280;17.806;2022-10-17T15:55:08;10.80;99.90
35668;DHT22;22158;59.280;17.806;2022-10-17T15:57:36;10.80;99.90
35668;DHT22;22158;59.280;17.806;2022-10-17T16:00:05;10.80;99.90
35668;DHT22;22158;59.280;17.806;2022-10-17T16:02:31;10.80;99.90
35668;DHT22;22158;59.280;17.806;2022-10-17T16:04:58;10.70;99.90
35668;DHT22;22158;59.280;17.806;2022-10-17T16:07:23;10.80;99.90
35668;DHT22;22158;59.280;17.806;2022-10-17T16:09:49;10.80;99.90
35668;DHT22;22158;59.280;17.806;2022-10-17T16:12:17;10.80;99.90
35668;DHT22;22158;59.280;17.806;2022-10-17T16:14:44;10.80;99.90
35668;DHT22;22158;59.280;17.806;2022-10-17T16:17:14;10.70;99.90
35668;DHT22;22158;59.280;17.806;2022-10-17T16:19:40;10.80;99.90
35668;DHT22;22158;59.280;17.806;2022-10-17T16:22:19;10.70;99.90
35668;DHT22;22158;59.280;17.806;2022-10-17T16:24:45;10.70;99.90
35668;DHT22;22158;59.280;17.806;2022-10-17T16:27:10;10.80;99.90
35668;DHT22;22158;59.280;17.806;2022-10-17T16:29:36;10.70;99.90
35668;DHT22;22158;59.280;17.806;2022-10-17T16:32:02;10.60;99.90
35668;DHT22;22158;59.280;17.806;2022-10-17T16:34:27;10.60;99.90
35668;DHT22;22158;59.280;17.806;2022-10-17T16:36:55;10.60;99.90
35668;DHT22;22158;59.280;17.806;2022-10-17T16:39:20;10.60;99.90
35668;DHT22;22158;59.280;17.806;2022-10-17T16:41:46;10.60;99.90
35668;DHT22;22158;59.280;17.806;2022-10-17T16:44:12;10.60;99.90
35668;DHT22;22158;59.280;17.806;2022-10-17T16:46:39;10.60;99.90
35668;DHT22;22158;59.280;17.806;2022-10-17T16:49:05;10.60;99.90
35668;DHT22;22158;59.280;17.806;2022-10-17T16:51:32;10.60;99.90
35668;DHT22;22158;59.280;17.806;2022-10-17T16:54:00;10.60;99.90
35668;DHT22;22158;59.280;17.806;2022-10-17T16:56:27;10.60;99.90
35668;DHT22;22158;59.280;17.806;2022-10-17T16:58:57;10.70;99.90
35668;DHT22;22158;59.280;17.806;2022-10-17T17:01:24;10.60;99.90
35668;DHT22;22158;59.280;17.806;2022-10-17T17:03:51;10.70;99.90
35668;DHT22;22158;59.280;17.806;2022-10-17T17:06:22;10.60;99.90
35668;DHT22;22158;59.280;17.806;2022-10-17T17:08:49;10.60;99.90
35668;DHT22;22158;59.280;17.806;2022-10-17T17:11:16;10.60;99.90
35668;DHT22;22158;59.280;17.806;2022-10-17T17:13:42;10.60;99.90
35668;DHT22;22158;59.280;17.806;2022-10-17T17:16:10;10.70;99.90
35668;DHT22;22158;59.280;17.806;2022-10-17T17:18:36;10.60;99.90
35668;DHT22;22158;59.280;17.806;2022-10-17T17:21:04;10.60;99.90
35668;DHT22;22158;59.280;17.806;2022-10-17T17:23:32;10.60;99.90
35668;DHT22;22158;59.280;17.806;2022-10-17T17:26:00;10.60;99.90
35668;DHT22;22158;59.280;17.806;2022-10-17T17:28:26;10.60;99.90
35668;DHT22;22158;59.280;17.806;2022-10-17T17:30:53;10.60;99.90
35668;DHT22;22158;59.280;17.806;2022-10-17T17:33:20;10.60;99.90
35668;DHT22;22158;59.280;17.806;2022-10-17T17:35:46;10.60;99.90
35668;DHT22;22158;59.280;17.806;2022-10-17T17:38:12;10.60;99.90
35668;DHT22;22158;59.280;17.806;2022-10-17T17:40:45;10.60;99.90
35668;DHT22;22158;59.280;17.806;2022-10-17T17:43:11;10.50;99.90
35668;DHT22;22158;59.280;17.806;2022-10-17T17:45:36;10.60;99.90
35668;DHT22;22158;59.280;17.806;2022-10-17T17:48:02;10.60;99.90
35668;DHT22;22158;59.280;17.806;2022-10-17T17:50:28;10.60;99.90
35668;DHT22;22158;59.280;17.806;2022-10-17T17:52:53;10.60;99.90
35668;DHT22;22158;59.280;17.806;2022-10-17T17:55:19;10.50;99.90
35668;DHT22;22158;59.280;17.806;2022-10-17T17:57:45;10.50;99.90
35668;DHT22;22158;59.280;17.806;2022-10-17T18:00:11;10.60;99.90
35668;DHT22;22158;59.280;17.806;2022-10-17T18:02:36;10.50;99.90
35668;DHT22;22158;59.280;17.806;2022-10-17T18:05:02;10.50;99.90